map of MMY home
MMY - Airport
Location
City:  Miyakojima, Miyakojima Island, Okinawa, Japan
Name:Miyako Airport
ICAO:ROMY
IATA:MMY

Details
Type:Airport (Aerodrome, Airfield)
Latitude:24°46'58"N (24.782833)
Longitude:125°17'42"E (125.295111)
Datum:WGS 1984
Elevation:150 ft (46 m)
Variation:4.86°W (WMM2015v2 magnetic declination)
-0.08° annual change
Runways:1
Longest:6560 × 150 ft (1999 × 45.5 m), paved

Time
Time Zone:UTC+9
Local Time:

Weather
METAR:ROMY 041100Z 05010KT 9999 SCT008 BKN012 21/20 Q1017

Related Locations
Nearby:
Farthest:SSPF: 12410 mi / 19972 km
São José das Palmeiras [Fazenda São Rafael], PR, BR

Find:

   beyond  
but within

Other Information
Maps:
NOTAMs:
Links:
Sources:

  
  • flag of Japan
  • flag of Okinawa
  • flag of Miyakojima
  

Sectional Chart

Flight Planning
at skyvector.com

Satellite Image

Google Maps Satellite view

 

Copyright © 2004-2019 Karl L. Swartz. All rights reserved.
The Great Circle Mapper name and logo are trademarks of the Great Circle Mapper.
All other trademarks mentioned herein belong to their respective owners.
Please see credits for attibutions and further copyright information.

  Follow gcmap on Facebook Follow gcmap on Twitter GCmap on LinkedIn

hCard Microformat

Geo Microformat